createdAt,value
2018-09-11T00:00:29.190Z,16.80
2018-09-11T00:02:57.460Z,16.87
2018-09-11T00:05:26.409Z,16.87
2018-09-11T00:07:54.838Z,16.96
2018-09-11T00:10:24.181Z,16.97
2018-09-11T00:12:52.689Z,16.88
2018-09-11T00:15:20.968Z,16.79
2018-09-11T00:17:49.641Z,16.79
2018-09-11T00:20:17.948Z,16.75
2018-09-11T00:22:47.038Z,16.78
2018-09-11T00:25:15.560Z,16.80
2018-09-11T00:27:43.862Z,16.84
2018-09-11T00:30:12.162Z,16.84
2018-09-11T00:32:40.572Z,16.82
2018-09-11T00:35:09.717Z,16.78
2018-09-11T00:37:37.965Z,16.93
2018-09-11T00:40:07.096Z,16.84
2018-09-11T00:42:35.418Z,16.98
2018-09-11T00:45:03.855Z,17.04
2018-09-11T00:47:33.081Z,17.10
2018-09-11T00:50:01.738Z,17.13
2018-09-11T00:52:30.318Z,17.20
2018-09-11T00:54:58.752Z,17.31
2018-09-11T00:57:27.161Z,17.22
2018-09-11T00:59:55.837Z,17.07
2018-09-11T01:02:24.269Z,17.11
2018-09-11T01:04:52.776Z,17.15
2018-09-11T01:07:22.196Z,17.06
2018-09-11T01:09:52.291Z,16.98
2018-09-11T01:12:20.652Z,16.94
2018-09-11T01:14:49.672Z,16.92
2018-09-11T01:17:18.229Z,16.90
2018-09-11T01:19:46.558Z,16.81
2018-09-11T01:22:14.927Z,16.82
2018-09-11T01:24:43.251Z,16.78
2018-09-11T01:27:11.554Z,16.83
2018-09-11T01:29:40.973Z,16.76
2018-09-11T01:32:09.652Z,16.72
2018-09-11T01:34:37.976Z,16.62
2018-09-11T01:37:06.485Z,16.56
2018-09-11T01:39:34.886Z,16.56
2018-09-11T01:42:03.189Z,16.57
2018-09-11T01:44:31.461Z,16.52
2018-09-11T01:46:59.937Z,16.44
2018-09-11T01:49:28.401Z,16.53
2018-09-11T01:51:56.701Z,16.50
2018-09-11T01:54:24.965Z,16.51
2018-09-11T01:56:53.250Z,16.60
2018-09-11T01:59:21.646Z,16.57
2018-09-11T02:01:49.941Z,16.46
2018-09-11T02:04:19.592Z,16.49
2018-09-11T02:06:47.909Z,16.44
2018-09-11T02:09:16.238Z,16.40
2018-09-11T02:11:44.538Z,16.34
2018-09-11T02:14:12.787Z,16.34
2018-09-11T02:16:41.214Z,16.36
2018-09-11T02:19:09.543Z,16.34
2018-09-11T02:21:37.841Z,16.29
2018-09-11T02:24:06.100Z,16.38
2018-09-11T02:26:34.784Z,16.29
2018-09-11T02:29:03.045Z,16.30
2018-09-11T02:31:31.336Z,16.35
2018-09-11T02:33:59.605Z,16.37
2018-09-11T02:36:27.890Z,16.35
2018-09-11T02:38:56.149Z,16.28
2018-09-11T02:41:24.717Z,16.47
2018-09-11T02:43:53.295Z,16.60
2018-09-11T02:46:21.575Z,16.61
2018-09-11T02:48:50.225Z,16.48
2018-09-11T02:51:19.621Z,16.39
2018-09-11T02:53:47.904Z,16.38
2018-09-11T02:56:16.176Z,16.30
2018-09-11T02:58:44.451Z,16.34
2018-09-11T03:01:12.747Z,16.32
2018-09-11T03:03:41.057Z,16.31
2018-09-11T03:06:09.753Z,16.29
2018-09-11T03:08:38.026Z,16.34
2018-09-11T03:11:06.452Z,16.33
2018-09-11T03:13:34.720Z,16.29
2018-09-11T03:16:03.460Z,16.32
2018-09-11T03:18:32.040Z,16.34
2018-09-11T03:21:00.448Z,16.30
2018-09-11T03:23:28.726Z,16.31
2018-09-11T03:25:57.009Z,16.31
2018-09-11T03:28:25.481Z,16.27
2018-09-11T03:30:53.762Z,16.33
2018-09-11T03:33:22.064Z,16.38
2018-09-11T03:35:50.847Z,16.28
2018-09-11T03:38:20.228Z,16.24
2018-09-11T03:40:48.828Z,16.24
2018-09-11T03:43:17.079Z,16.27
2018-09-11T03:45:49.257Z,16.25
2018-09-11T03:48:19.421Z,16.22
2018-09-11T03:50:50.232Z,16.23
2018-09-11T03:53:25.757Z,16.20
2018-09-11T03:55:54.064Z,16.22
2018-09-11T03:58:22.317Z,16.24
2018-09-11T13:31:47.135Z,32.08
2018-09-11T13:37:14.521Z,33.47
2018-09-11T13:39:44.457Z,33.88
2018-09-11T13:42:13.519Z,33.42
2018-09-11T13:44:42.782Z,34.41
2018-09-11T13:47:11.595Z,35.80
2018-09-11T13:49:40.657Z,36.67
2018-09-11T13:52:09.985Z,36.46
2018-09-11T13:54:39.797Z,36.17
2018-09-11T13:57:08.600Z,37.08
2018-09-11T13:59:37.810Z,35.50
2018-09-11T14:02:06.416Z,34.98
2018-09-11T14:04:35.750Z,34.72
2018-09-11T14:07:05.438Z,35.61
2018-09-11T14:09:35.574Z,31.03
2018-09-11T14:12:04.709Z,29.75
2018-09-11T14:14:34.080Z,29.08
2018-09-11T14:17:04.495Z,28.64
2018-09-11T14:19:35.802Z,28.26
2018-09-11T14:22:07.085Z,28.44
2018-09-11T14:24:36.082Z,28.46
2018-09-11T14:27:06.163Z,27.83
2018-09-11T14:29:34.995Z,27.82
2018-09-11T14:32:04.868Z,27.40
2018-09-11T14:34:35.629Z,27.30
2018-09-11T14:37:14.013Z,27.60
2018-09-11T14:39:46.509Z,27.17
2018-09-11T14:42:18.326Z,27.22
2018-09-11T14:44:51.199Z,27.25
2018-09-11T14:47:21.189Z,27.14
2018-09-11T14:49:52.448Z,26.85
2018-09-11T14:52:21.387Z,26.84
2018-09-11T14:54:51.006Z,26.64
2018-09-11T14:57:20.154Z,26.61
2018-09-11T14:59:53.908Z,26.42
2018-09-11T15:02:25.225Z,26.49
2018-09-11T15:04:55.797Z,26.38
2018-09-11T15:07:26.162Z,26.37
2018-09-11T15:09:54.634Z,26.24
2018-09-11T15:12:23.294Z,26.46
2018-09-11T15:14:53.814Z,26.48
2018-09-11T15:17:31.027Z,26.35
2018-09-11T15:20:02.350Z,26.40
2018-09-11T15:22:30.803Z,26.27
2018-09-11T15:25:00.289Z,26.25
2018-09-11T15:27:30.351Z,26.29
2018-09-11T15:29:58.720Z,26.44
2018-09-11T15:32:28.658Z,26.49
2018-09-11T15:34:57.217Z,26.44
2018-09-11T15:37:31.964Z,26.37
2018-09-11T15:40:03.380Z,26.21
2018-09-11T15:42:32.772Z,26.23
2018-09-11T15:45:01.486Z,26.25
2018-09-11T15:47:32.695Z,26.31
2018-09-11T15:50:04.590Z,26.28
2018-09-11T15:52:33.246Z,26.21
2018-09-11T15:55:02.245Z,26.24
2018-09-11T15:57:30.659Z,26.23
2018-09-11T15:59:59.286Z,26.19
2018-09-11T16:02:30.246Z,26.13
2018-09-11T16:05:01.999Z,26.06
2018-09-11T16:07:32.957Z,26.10
2018-09-11T16:10:02.720Z,26.03
2018-09-11T16:12:34.348Z,26.01
2018-09-11T16:15:07.534Z,26.09
2018-09-11T16:17:36.093Z,25.97
2018-09-11T16:20:09.050Z,25.99
2018-09-11T16:22:38.907Z,25.91
2018-09-11T16:25:09.837Z,25.89
2018-09-11T16:27:41.306Z,25.87
2018-09-11T16:30:10.783Z,25.74
2018-09-11T16:32:39.226Z,25.43
2018-09-11T16:35:09.212Z,25.41
2018-09-11T16:37:43.553Z,25.27
2018-09-11T16:40:14.331Z,25.16
2018-09-11T16:42:43.878Z,25.08
2018-09-11T16:45:14.779Z,25.15
2018-09-11T16:47:49.401Z,25.04
2018-09-11T16:50:18.616Z,24.87
2018-09-11T16:52:49.180Z,24.81
2018-09-11T16:55:18.676Z,24.52
2018-09-11T16:57:48.157Z,24.43
2018-09-11T17:00:17.203Z,24.49
2018-09-11T17:02:46.756Z,24.38
2018-09-11T17:05:17.387Z,24.38
2018-09-11T17:07:47.284Z,24.08
2018-09-11T17:10:18.888Z,23.90
2018-09-11T17:12:51.871Z,23.69
2018-09-11T17:15:21.293Z,23.50
2018-09-11T17:17:50.701Z,23.42
2018-09-11T17:20:22.143Z,23.23
2018-09-11T17:22:53.722Z,23.01
2018-09-11T17:25:22.725Z,22.97
2018-09-11T17:27:55.114Z,23.03
2018-09-11T17:30:25.494Z,22.90
2018-09-11T17:32:56.717Z,22.97
2018-09-11T17:35:31.067Z,22.97
2018-09-11T17:38:03.154Z,22.93
2018-09-11T17:40:35.751Z,22.92
2018-09-11T17:43:04.970Z,22.69
2018-09-11T17:45:40.189Z,22.60
2018-09-11T17:48:10.303Z,22.45
2018-09-11T17:50:48.664Z,22.39
2018-09-11T17:53:23.375Z,22.31
2018-09-11T17:55:52.518Z,22.34
2018-09-11T17:58:24.405Z,22.04
2018-09-11T18:00:56.257Z,22.00
2018-09-11T18:03:29.115Z,21.79
2018-09-11T18:06:00.218Z,21.72
2018-09-11T18:08:29.907Z,21.61
2018-09-11T18:11:00.680Z,21.50
2018-09-11T18:13:29.298Z,21.55
2018-09-11T18:15:59.392Z,21.22
2018-09-11T18:18:29.395Z,21.30
2018-09-11T18:20:58.461Z,21.22
2018-09-11T18:23:27.737Z,21.06
2018-09-11T18:26:00.521Z,21.11
2018-09-11T18:28:31.785Z,21.20
2018-09-11T18:31:01.980Z,21.08
2018-09-11T18:33:31.232Z,21.22
2018-09-11T18:36:00.767Z,20.95
2018-09-11T18:38:37.181Z,20.99
2018-09-11T18:41:11.672Z,21.11
2018-09-11T18:43:41.590Z,21.08
2018-09-11T18:46:11.939Z,21.11
2018-09-11T18:48:41.947Z,21.01
2018-09-11T18:51:13.578Z,20.80
2018-09-11T18:53:43.712Z,20.68
2018-09-11T18:56:14.664Z,20.80
2018-09-11T18:58:50.667Z,20.94
2018-09-11T19:01:20.953Z,20.93
2018-09-11T19:03:50.989Z,20.56
2018-09-11T19:06:20.951Z,20.90
2018-09-11T19:08:57.769Z,21.10
2018-09-11T19:11:35.009Z,21.03
2018-09-11T19:14:05.714Z,21.05
2018-09-11T19:17:41.303Z,21.09
2018-09-11T19:20:27.400Z,21.21
2018-09-11T19:22:58.185Z,21.18
2018-09-11T19:25:30.653Z,21.25
2018-09-11T19:28:00.741Z,21.36
2018-09-11T19:30:33.681Z,21.28
2018-09-11T19:33:08.054Z,21.14
2018-09-11T19:35:38.424Z,21.01
2018-09-11T19:38:19.188Z,20.94
2018-09-11T19:40:51.300Z,20.94
2018-09-11T19:43:22.426Z,20.92
2018-09-11T19:45:52.023Z,20.74
2018-09-11T19:48:27.513Z,20.53
2018-09-11T19:51:00.089Z,20.71
2018-09-11T19:53:29.983Z,20.56
2018-09-11T19:56:02.089Z,20.60
2018-09-11T19:58:33.468Z,20.77
2018-09-11T20:01:02.075Z,20.77
2018-09-11T20:03:32.161Z,20.77
2018-09-11T20:06:02.033Z,20.74
2018-09-11T20:08:31.388Z,20.70
2018-09-11T20:12:02.985Z,20.48
2018-09-11T20:14:32.530Z,20.29
2018-09-11T20:17:03.270Z,20.47
2018-09-11T20:19:32.169Z,20.32
2018-09-11T20:22:00.781Z,20.40
2018-09-11T20:24:34.087Z,20.44
2018-09-11T20:27:07.359Z,20.35
2018-09-11T20:29:38.864Z,20.07
2018-09-11T20:32:07.642Z,19.96
2018-09-11T20:34:36.182Z,19.86
2018-09-11T20:37:07.749Z,20.16
2018-09-11T20:39:37.635Z,20.00
2018-09-11T20:42:07.577Z,19.88
2018-09-11T20:44:39.085Z,19.95
2018-09-11T20:47:08.650Z,20.08
2018-09-11T20:49:37.728Z,20.00
2018-09-11T20:52:09.692Z,19.89
2018-09-11T20:54:40.209Z,19.75
2018-09-11T20:57:08.741Z,19.80
2018-09-11T20:59:39.039Z,19.74
2018-09-11T21:02:07.726Z,19.82
2018-09-11T21:04:38.618Z,19.82
2018-09-11T21:07:09.235Z,19.89
2018-09-11T21:09:39.108Z,19.86
2018-09-11T21:12:10.603Z,19.94
2018-09-11T21:14:43.367Z,19.81
2018-09-11T21:17:12.118Z,19.75
2018-09-11T21:19:42.916Z,19.99
2018-09-11T21:22:14.074Z,20.09
2018-09-11T21:24:47.086Z,20.02
2018-09-11T21:27:16.697Z,19.79
2018-09-11T21:29:47.662Z,19.64
2018-09-11T21:32:17.654Z,19.56
2018-09-11T21:34:46.550Z,19.37
2018-09-11T21:37:17.806Z,19.35
2018-09-11T21:39:48.839Z,19.38
2018-09-11T21:42:21.099Z,19.14
2018-09-11T21:44:52.523Z,19.11
2018-09-11T21:47:23.484Z,19.10
2018-09-11T21:49:57.219Z,19.01
2018-09-11T21:52:27.525Z,18.98
2018-09-11T21:54:56.949Z,18.86
2018-09-11T21:57:27.040Z,18.84
2018-09-11T21:59:55.391Z,18.75
2018-09-11T22:02:25.105Z,18.67
2018-09-11T22:04:55.391Z,18.61
2018-09-11T22:07:25.154Z,18.57
2018-09-11T22:09:55.348Z,18.53
2018-09-11T22:12:24.337Z,18.53
2018-09-11T22:14:52.759Z,18.52
2018-09-11T22:17:22.139Z,18.31
2018-09-11T22:19:50.719Z,18.32
2018-09-11T22:22:19.838Z,18.29
2018-09-11T22:24:48.131Z,18.19
2018-09-11T22:27:17.193Z,18.20
2018-09-11T22:29:45.981Z,18.02
2018-09-11T22:32:14.365Z,18.09
2018-09-11T22:34:42.832Z,18.08
2018-09-11T22:37:11.593Z,17.96
2018-09-11T22:39:41.004Z,17.95
2018-09-11T22:42:11.116Z,18.13
2018-09-11T22:44:40.666Z,17.90
2018-09-11T22:47:09.258Z,17.84
2018-09-11T22:49:37.526Z,17.79
2018-09-11T22:52:06.908Z,17.69
2018-09-11T22:54:35.947Z,17.67
2018-09-11T22:57:04.320Z,17.57
2018-09-11T22:59:32.773Z,17.58
2018-09-11T23:02:01.071Z,17.53
2018-09-11T23:04:29.424Z,17.48
2018-09-11T23:07:01.066Z,17.47
2018-09-11T23:09:30.494Z,17.46
2018-09-11T23:11:58.929Z,17.38
2018-09-11T23:14:27.955Z,17.51
2018-09-11T23:16:56.644Z,17.34
2018-09-11T23:19:25.303Z,17.36
2018-09-11T23:21:54.870Z,17.46
2018-09-11T23:24:23.321Z,17.58
2018-09-11T23:26:51.608Z,17.51
2018-09-11T23:29:20.064Z,17.58
2018-09-11T23:31:49.141Z,17.50
2018-09-11T23:34:17.428Z,17.49
2018-09-11T23:36:45.924Z,17.43
2018-09-11T23:39:15.082Z,17.45
2018-09-11T23:41:44.726Z,17.33
2018-09-11T23:44:13.696Z,17.44
2018-09-11T23:46:41.986Z,17.36
2018-09-11T23:49:10.403Z,17.25
2018-09-11T23:51:38.908Z,17.33
2018-09-11T23:54:07.701Z,17.14
2018-09-11T23:56:36.469Z,17.20
2018-09-11T23:59:05.307Z,17.11
